sensor_id;sensor_type;location;lat;lon;timestamp;pressure;altitude;pressure_sealevel;temperature;humidity
4326;BME280;58429;49.826;10.880;2022-12-07T00:00:48;98616;;;3.03;87.32
4326;BME280;58429;49.826;10.880;2022-12-07T00:01:48;98618;;;3;87.34
4326;BME280;58429;49.826;10.880;2022-12-07T00:02:48;98609;;;2.98;87.3
4326;BME280;58429;49.826;10.880;2022-12-07T00:03:49;98609;;;2.99;87.32
4326;BME280;58429;49.826;10.880;2022-12-07T00:04:48;98611;;;3.03;87.35
4326;BME280;58429;49.826;10.880;2022-12-07T00:05:48;98616;;;3.04;87.34
4326;BME280;58429;49.826;10.880;2022-12-07T00:06:50;98611;;;3.04;87.33
4326;BME280;58429;49.826;10.880;2022-12-07T00:07:49;98611;;;3.04;87.31
4326;BME280;58429;49.826;10.880;2022-12-07T00:08:48;98607;;;3.08;87.3
4326;BME280;58429;49.826;10.880;2022-12-07T00:09:48;98608;;;3.06;87.26
4326;BME280;58429;49.826;10.880;2022-12-07T00:10:48;98605;;;3.08;87.27
4326;BME280;58429;49.826;10.880;2022-12-07T00:11:49;98603;;;3.08;87.25
4326;BME280;58429;49.826;10.880;2022-12-07T00:12:48;98604;;;3.07;87.26
4326;BME280;58429;49.826;10.880;2022-12-07T00:13:51;98604;;;3.05;87.24
4326;BME280;58429;49.826;10.880;2022-12-07T00:14:48;98603;;;3.06;87.22
4326;BME280;58429;49.826;10.880;2022-12-07T00:15:48;98600;;;3.06;87.2
4326;BME280;58429;49.826;10.880;2022-12-07T00:16:49;98602;;;3.08;87.2
4326;BME280;58429;49.826;10.880;2022-12-07T00:17:48;98602;;;3.04;87.18
4326;BME280;58429;49.826;10.880;2022-12-07T00:18:48;98601;;;3.06;87.19
4326;BME280;58429;49.826;10.880;2022-12-07T00:19:48;98603;;;3.05;87.14
4326;BME280;58429;49.826;10.880;2022-12-07T00:20:48;98603;;;3.06;87.16
4326;BME280;58429;49.826;10.880;2022-12-07T00:21:49;98602;;;3.05;87.16
4326;BME280;58429;49.826;10.880;2022-12-07T00:22:48;98597;;;3.05;87.16
4326;BME280;58429;49.826;10.880;2022-12-07T00:23:49;98600;;;3.08;87.13
4326;BME280;58429;49.826;10.880;2022-12-07T00:24:48;98598;;;3.07;87.14
4326;BME280;58429;49.826;10.880;2022-12-07T00:25:48;98599;;;3.05;87.09
4326;BME280;58429;49.826;10.880;2022-12-07T00:26:48;98601;;;3.05;87.09
4326;BME280;58429;49.826;10.880;2022-12-07T00:27:48;98597;;;3.08;87.12
4326;BME280;58429;49.826;10.880;2022-12-07T00:28:49;98603;;;3.08;87.13
4326;BME280;58429;49.826;10.880;2022-12-07T00:29:48;98596;;;3.07;87.1
4326;BME280;58429;49.826;10.880;2022-12-07T00:30:48;98599;;;3.05;87.09
4326;BME280;58429;49.826;10.880;2022-12-07T00:31:48;98601;;;3.08;87.09
4326;BME280;58429;49.826;10.880;2022-12-07T00:32:48;98593;;;3.06;87.07
4326;BME280;58429;49.826;10.880;2022-12-07T00:33:48;98598;;;3.1;87.08
4326;BME280;58429;49.826;10.880;2022-12-07T00:34:48;98593;;;3.11;87.11
4326;BME280;58429;49.826;10.880;2022-12-07T00:35:54;98590;;;3.11;87.06
4326;BME280;58429;49.826;10.880;2022-12-07T00:36:49;98595;;;3.11;87.05
4326;BME280;58429;49.826;10.880;2022-12-07T00:37:49;98585;;;3.13;86.98
4326;BME280;58429;49.826;10.880;2022-12-07T00:38:49;98582;;;3.08;86.91
4326;BME280;58429;49.826;10.880;2022-12-07T00:39:48;98581;;;3.06;86.97
4326;BME280;58429;49.826;10.880;2022-12-07T00:40:53;98589;;;3.1;86.96
4326;BME280;58429;49.826;10.880;2022-12-07T00:41:48;98577;;;3.05;86.96
4326;BME280;58429;49.826;10.880;2022-12-07T00:42:48;98594;;;3.04;86.92
4326;BME280;58429;49.826;10.880;2022-12-07T00:43:49;98576;;;3.05;86.91
4326;BME280;58429;49.826;10.880;2022-12-07T00:44:48;98580;;;3.05;86.95
4326;BME280;58429;49.826;10.880;2022-12-07T00:45:49;98578;;;3.01;86.93
4326;BME280;58429;49.826;10.880;2022-12-07T00:46:49;98583;;;3.02;86.97
4326;BME280;58429;49.826;10.880;2022-12-07T00:47:49;98582;;;3.03;87.01
4326;BME280;58429;49.826;10.880;2022-12-07T00:48:49;98584;;;3.03;87.01
4326;BME280;58429;49.826;10.880;2022-12-07T00:49:49;98582;;;3.03;87.01
4326;BME280;58429;49.826;10.880;2022-12-07T00:50:49;98579;;;3.01;86.99
4326;BME280;58429;49.826;10.880;2022-12-07T00:51:49;98573;;;3;87.02
4326;BME280;58429;49.826;10.880;2022-12-07T00:52:48;98580;;;2.99;87.01
4326;BME280;58429;49.826;10.880;2022-12-07T00:53:49;98580;;;3.01;86.99
4326;BME280;58429;49.826;10.880;2022-12-07T00:54:48;98577;;;3.01;87.01
4326;BME280;58429;49.826;10.880;2022-12-07T00:55:48;98584;;;3.01;87
4326;BME280;58429;49.826;10.880;2022-12-07T00:56:48;98576;;;3.01;86.94
4326;BME280;58429;49.826;10.880;2022-12-07T00:57:49;98581;;;2.97;86.86
4326;BME280;58429;49.826;10.880;2022-12-07T00:58:49;98580;;;3;86.86
4326;BME280;58429;49.826;10.880;2022-12-07T00:59:48;98576;;;3;86.92
4326;BME280;58429;49.826;10.880;2022-12-07T01:00:49;98580;;;2.97;86.92
4326;BME280;58429;49.826;10.880;2022-12-07T01:01:49;98576;;;3;86.9
4326;BME280;58429;49.826;10.880;2022-12-07T01:02:48;98583;;;2.96;86.84
4326;BME280;58429;49.826;10.880;2022-12-07T01:03:48;98585;;;3.02;86.9
4326;BME280;58429;49.826;10.880;2022-12-07T01:04:48;98579;;;2.97;86.9
4326;BME280;58429;49.826;10.880;2022-12-07T01:05:49;98580;;;2.93;86.81
4326;BME280;58429;49.826;10.880;2022-12-07T01:06:49;98587;;;2.95;86.78
4326;BME280;58429;49.826;10.880;2022-12-07T01:07:48;98584;;;2.95;86.81
4326;BME280;58429;49.826;10.880;2022-12-07T01:08:49;98582;;;2.94;86.74
4326;BME280;58429;49.826;10.880;2022-12-07T01:09:49;98580;;;2.92;86.8
4326;BME280;58429;49.826;10.880;2022-12-07T01:10:49;98578;;;2.92;86.86
4326;BME280;58429;49.826;10.880;2022-12-07T01:11:49;98583;;;2.91;86.9
4326;BME280;58429;49.826;10.880;2022-12-07T01:12:49;98581;;;2.97;86.92
4326;BME280;58429;49.826;10.880;2022-12-07T01:13:49;98576;;;2.93;86.9
4326;BME280;58429;49.826;10.880;2022-12-07T01:14:49;98575;;;2.92;86.91
4326;BME280;58429;49.826;10.880;2022-12-07T01:15:48;98572;;;2.92;86.95
4326;BME280;58429;49.826;10.880;2022-12-07T01:16:49;98576;;;2.86;86.95
4326;BME280;58429;49.826;10.880;2022-12-07T01:17:49;98575;;;2.9;86.94
4326;BME280;58429;49.826;10.880;2022-12-07T01:18:49;98573;;;2.9;86.95
4326;BME280;58429;49.826;10.880;2022-12-07T01:19:48;98579;;;2.9;86.88
4326;BME280;58429;49.826;10.880;2022-12-07T01:20:56;98575;;;2.87;86.87
4326;BME280;58429;49.826;10.880;2022-12-07T01:21:49;98579;;;2.88;86.71
4326;BME280;58429;49.826;10.880;2022-12-07T01:22:49;98581;;;2.86;86.7
4326;BME280;58429;49.826;10.880;2022-12-07T01:23:49;98578;;;2.85;86.75
4326;BME280;58429;49.826;10.880;2022-12-07T01:24:49;98585;;;2.88;86.79
4326;BME280;58429;49.826;10.880;2022-12-07T01:25:53;98586;;;2.84;86.7
4326;BME280;58429;49.826;10.880;2022-12-07T01:26:49;98583;;;2.85;86.74
4326;BME280;58429;49.826;10.880;2022-12-07T01:27:49;98586;;;2.84;86.78
4326;BME280;58429;49.826;10.880;2022-12-07T01:28:49;98576;;;2.84;86.73
4326;BME280;58429;49.826;10.880;2022-12-07T01:29:49;98581;;;2.85;86.73
4326;BME280;58429;49.826;10.880;2022-12-07T01:30:54;98584;;;2.82;86.73
4326;BME280;58429;49.826;10.880;2022-12-07T01:31:49;98584;;;2.83;86.73
4326;BME280;58429;49.826;10.880;2022-12-07T01:32:49;98584;;;2.8;86.76
4326;BME280;58429;49.826;10.880;2022-12-07T01:33:49;98588;;;2.81;86.77
4326;BME280;58429;49.826;10.880;2022-12-07T01:34:49;98583;;;2.8;86.78
4326;BME280;58429;49.826;10.880;2022-12-07T01:35:49;98586;;;2.8;86.76
4326;BME280;58429;49.826;10.880;2022-12-07T01:36:49;98581;;;2.82;86.77
4326;BME280;58429;49.826;10.880;2022-12-07T01:37:49;98581;;;2.83;86.79
4326;BME280;58429;49.826;10.880;2022-12-07T01:38:49;98572;;;2.8;86.77
4326;BME280;58429;49.826;10.880;2022-12-07T01:39:49;98572;;;2.79;86.75
4326;BME280;58429;49.826;10.880;2022-12-07T01:40:53;98579;;;2.78;86.72
4326;BME280;58429;49.826;10.880;2022-12-07T01:41:49;98577;;;2.8;86.76
4326;BME280;58429;49.826;10.880;2022-12-07T01:42:49;98577;;;2.8;86.77
4326;BME280;58429;49.826;10.880;2022-12-07T01:44:22;98570;;;2.79;86.69
4326;BME280;58429;49.826;10.880;2022-12-07T01:45:39;98566;;;2.75;86.69
4326;BME280;58429;49.826;10.880;2022-12-07T01:45:49;98565;;;2.77;86.59
4326;BME280;58429;49.826;10.880;2022-12-07T01:46:49;98560;;;2.75;86.66
4326;BME280;58429;49.826;10.880;2022-12-07T01:47:50;98566;;;2.74;86.68
4326;BME280;58429;49.826;10.880;2022-12-07T01:48:49;98562;;;2.74;86.73
4326;BME280;58429;49.826;10.880;2022-12-07T01:49:49;98554;;;2.75;86.74
4326;BME280;58429;49.826;10.880;2022-12-07T01:50:49;98557;;;2.72;86.79
4326;BME280;58429;49.826;10.880;2022-12-07T01:51:49;98560;;;2.74;86.73
4326;BME280;58429;49.826;10.880;2022-12-07T01:52:49;98561;;;2.68;86.6
4326;BME280;58429;49.826;10.880;2022-12-07T01:53:49;98554;;;2.72;86.54
4326;BME280;58429;49.826;10.880;2022-12-07T01:54:49;98548;;;2.7;86.48
4326;BME280;58429;49.826;10.880;2022-12-07T01:55:49;98552;;;2.7;86.53
4326;BME280;58429;49.826;10.880;2022-12-07T01:56:50;98555;;;2.67;86.51
4326;BME280;58429;49.826;10.880;2022-12-07T01:57:49;98553;;;2.66;86.45
4326;BME280;58429;49.826;10.880;2022-12-07T01:58:49;98558;;;2.65;86.41
4326;BME280;58429;49.826;10.880;2022-12-07T01:59:49;98561;;;2.63;86.4
4326;BME280;58429;49.826;10.880;2022-12-07T02:00:49;98560;;;2.67;86.45
4326;BME280;58429;49.826;10.880;2022-12-07T02:01:49;98559;;;2.62;86.42
4326;BME280;58429;49.826;10.880;2022-12-07T02:02:51;98550;;;2.65;86.38
4326;BME280;58429;49.826;10.880;2022-12-07T02:03:49;98554;;;2.64;86.38
4326;BME280;58429;49.826;10.880;2022-12-07T02:04:49;98555;;;2.65;86.4
4326;BME280;58429;49.826;10.880;2022-12-07T02:05:49;98553;;;2.66;86.38
4326;BME280;58429;49.826;10.880;2022-12-07T02:06:49;98548;;;2.65;86.39
4326;BME280;58429;49.826;10.880;2022-12-07T02:07:49;98547;;;2.68;86.41
4326;BME280;58429;49.826;10.880;2022-12-07T02:08:49;98556;;;2.63;86.33
4326;BME280;58429;49.826;10.880;2022-12-07T02:09:49;98545;;;2.68;86.37
4326;BME280;58429;49.826;10.880;2022-12-07T02:10:49;98547;;;2.68;86.41
4326;BME280;58429;49.826;10.880;2022-12-07T02:11:49;98553;;;2.67;86.33
4326;BME280;58429;49.826;10.880;2022-12-07T02:12:50;98550;;;2.67;86.35
4326;BME280;58429;49.826;10.880;2022-12-07T02:13:49;98546;;;2.7;86.37
4326;BME280;58429;49.826;10.880;2022-12-07T02:14:49;98547;;;2.66;86.37
4326;BME280;58429;49.826;10.880;2022-12-07T02:15:56;98541;;;2.66;86.4
4326;BME280;58429;49.826;10.880;2022-12-07T02:16:53;98546;;;2.69;86.42
4326;BME280;58429;49.826;10.880;2022-12-07T02:17:50;98547;;;2.67;86.37
4326;BME280;58429;49.826;10.880;2022-12-07T02:18:53;98545;;;2.7;86.36
4326;BME280;58429;49.826;10.880;2022-12-07T02:19:57;98546;;;2.67;86.37
4326;BME280;58429;49.826;10.880;2022-12-07T02:20:51;98550;;;2.67;86.37
4326;BME280;58429;49.826;10.880;2022-12-07T02:21:50;98548;;;2.71;86.4
4326;BME280;58429;49.826;10.880;2022-12-07T02:23:04;98554;;;2.7;86.36
4326;BME280;58429;49.826;10.880;2022-12-07T02:24:03;98552;;;2.67;86.37
4326;BME280;58429;49.826;10.880;2022-12-07T02:24:52;98553;;;2.73;86.38
4326;BME280;58429;49.826;10.880;2022-12-07T02:25:54;98551;;;2.72;86.36
4326;BME280;58429;49.826;10.880;2022-12-07T02:27:50;98552;;;2.73;86.36
4326;BME280;58429;49.826;10.880;2022-12-07T02:27:56;98554;;;2.71;86.36
4326;BME280;58429;49.826;10.880;2022-12-07T02:28:54;98545;;;2.72;86.33
4326;BME280;58429;49.826;10.880;2022-12-07T02:29:50;98546;;;2.73;86.31
4326;BME280;58429;49.826;10.880;2022-12-07T02:30:49;98552;;;2.75;86.3
4326;BME280;58429;49.826;10.880;2022-12-07T02:31:53;98546;;;2.75;86.28
4326;BME280;58429;49.826;10.880;2022-12-07T02:32:51;98544;;;2.72;86.27
4326;BME280;58429;49.826;10.880;2022-12-07T02:33:49;98541;;;2.72;86.27
4326;BME280;58429;49.826;10.880;2022-12-07T02:34:49;98541;;;2.76;86.27
4326;BME280;58429;49.826;10.880;2022-12-07T02:35:50;98540;;;2.75;86.21
4326;BME280;58429;49.826;10.880;2022-12-07T02:36:51;98540;;;2.75;86.19
4326;BME280;58429;49.826;10.880;2022-12-07T02:37:53;98536;;;2.77;86.23
4326;BME280;58429;49.826;10.880;2022-12-07T02:38:51;98536;;;2.75;86.22
4326;BME280;58429;49.826;10.880;2022-12-07T02:39:53;98545;;;2.79;86.23
4326;BME280;58429;49.826;10.880;2022-12-07T02:40:50;98536;;;2.8;86.21
4326;BME280;58429;49.826;10.880;2022-12-07T02:41:50;98541;;;2.78;86.22
4326;BME280;58429;49.826;10.880;2022-12-07T02:42:50;98538;;;2.78;86.18
4326;BME280;58429;49.826;10.880;2022-12-07T02:43:50;98538;;;2.77;86.18
4326;BME280;58429;49.826;10.880;2022-12-07T02:44:49;98541;;;2.77;86.18
4326;BME280;58429;49.826;10.880;2022-12-07T02:45:49;98536;;;2.81;86.18
4326;BME280;58429;49.826;10.880;2022-12-07T02:46:50;98547;;;2.75;86.1
4326;BME280;58429;49.826;10.880;2022-12-07T02:47:51;98555;;;2.73;86.09
4326;BME280;58429;49.826;10.880;2022-12-07T02:48:49;98556;;;2.75;86.1
4326;BME280;58429;49.826;10.880;2022-12-07T02:49:49;98555;;;2.76;86.12
4326;BME280;58429;49.826;10.880;2022-12-07T02:50:49;98552;;;2.72;86.04
4326;BME280;58429;49.826;10.880;2022-12-07T02:51:49;98551;;;2.72;86.03
4326;BME280;58429;49.826;10.880;2022-12-07T02:52:49;98550;;;2.68;86.05
4326;BME280;58429;49.826;10.880;2022-12-07T02:53:49;98550;;;2.74;86.09
4326;BME280;58429;49.826;10.880;2022-12-07T02:54:49;98551;;;2.66;86.05
4326;BME280;58429;49.826;10.880;2022-12-07T02:55:49;98552;;;2.69;86.1
4326;BME280;58429;49.826;10.880;2022-12-07T02:56:50;98550;;;2.68;86.1
4326;BME280;58429;49.826;10.880;2022-12-07T02:57:53;98547;;;2.71;86.12
4326;BME280;58429;49.826;10.880;2022-12-07T02:58:50;98546;;;2.69;86.09
4326;BME280;58429;49.826;10.880;2022-12-07T02:59:53;98544;;;2.71;86.1
4326;BME280;58429;49.826;10.880;2022-12-07T03:00:52;98540;;;2.66;86.07
4326;BME280;58429;49.826;10.880;2022-12-07T03:01:50;98537;;;2.66;86.06
4326;BME280;58429;49.826;10.880;2022-12-07T03:02:52;98538;;;2.71;86.08
4326;BME280;58429;49.826;10.880;2022-12-07T03:03:51;98534;;;2.67;86.01
4326;BME280;58429;49.826;10.880;2022-12-07T03:04:51;98539;;;2.66;86.03
4326;BME280;58429;49.826;10.880;2022-12-07T03:05:52;98541;;;2.67;86.03
4326;BME280;58429;49.826;10.880;2022-12-07T03:06:49;98546;;;2.68;86.05
4326;BME280;58429;49.826;10.880;2022-12-07T03:07:51;98547;;;2.66;86.02
4326;BME280;58429;49.826;10.880;2022-12-07T03:08:51;98544;;;2.67;85.88
4326;BME280;58429;49.826;10.880;2022-12-07T03:09:51;98547;;;2.65;85.94
4326;BME280;58429;49.826;10.880;2022-12-07T03:10:50;98543;;;2.66;85.98
4326;BME280;58429;49.826;10.880;2022-12-07T03:11:49;98545;;;2.65;85.91
4326;BME280;58429;49.826;10.880;2022-12-07T03:12:51;98543;;;2.66;85.91
4326;BME280;58429;49.826;10.880;2022-12-07T03:13:50;98547;;;2.63;85.91
4326;BME280;58429;49.826;10.880;2022-12-07T03:14:49;98545;;;2.64;85.91
4326;BME280;58429;49.826;10.880;2022-12-07T03:15:51;98540;;;2.62;85.87
4326;BME280;58429;49.826;10.880;2022-12-07T03:16:49;98545;;;2.62;85.94
4326;BME280;58429;49.826;10.880;2022-12-07T03:17:49;98539;;;2.6;85.97
4326;BME280;58429;49.826;10.880;2022-12-07T03:18:50;98544;;;2.61;86
4326;BME280;58429;49.826;10.880;2022-12-07T03:19:49;98542;;;2.58;85.99
4326;BME280;58429;49.826;10.880;2022-12-07T03:20:49;98541;;;2.62;86.02
4326;BME280;58429;49.826;10.880;2022-12-07T03:21:50;98534;;;2.62;86.03
4326;BME280;58429;49.826;10.880;2022-12-07T03:22:49;98535;;;2.61;86.04
4326;BME280;58429;49.826;10.880;2022-12-07T03:23:49;98529;;;2.6;86.02
4326;BME280;58429;49.826;10.880;2022-12-07T03:24:50;98533;;;2.6;86.06
4326;BME280;58429;49.826;10.880;2022-12-07T03:25:50;98527;;;2.61;86.05
4326;BME280;58429;49.826;10.880;2022-12-07T03:26:53;98535;;;2.6;86.07
4326;BME280;58429;49.826;10.880;2022-12-07T03:27:49;98535;;;2.63;86.11
4326;BME280;58429;49.826;10.880;2022-12-07T03:28:50;98531;;;2.6;86.08
4326;BME280;58429;49.826;10.880;2022-12-07T03:29:50;98530;;;2.62;86.11
4326;BME280;58429;49.826;10.880;2022-12-07T03:30:50;98532;;;2.63;86.09
4326;BME280;58429;49.826;10.880;2022-12-07T03:31:51;98527;;;2.6;86.11
4326;BME280;58429;49.826;10.880;2022-12-07T03:32:50;98531;;;2.64;86.14
4326;BME280;58429;49.826;10.880;2022-12-07T03:33:50;98528;;;2.64;86.14
4326;BME280;58429;49.826;10.880;2022-12-07T03:34:50;98528;;;2.63;86.12
4326;BME280;58429;49.826;10.880;2022-12-07T03:35:50;98528;;;2.65;86.14
4326;BME280;58429;49.826;10.880;2022-12-07T03:36:50;98525;;;2.63;86.14
4326;BME280;58429;49.826;10.880;2022-12-07T03:37:50;98529;;;2.65;86.13
4326;BME280;58429;49.826;10.880;2022-12-07T03:38:50;98523;;;2.62;86.13
4326;BME280;58429;49.826;10.880;2022-12-07T03:39:50;98518;;;2.64;86.13
4326;BME280;58429;49.826;10.880;2022-12-07T03:40:50;98522;;;2.68;86.12
4326;BME280;58429;49.826;10.880;2022-12-07T03:41:49;98523;;;2.67;86.12
4326;BME280;58429;49.826;10.880;2022-12-07T03:42:49;98518;;;2.64;86.12
4326;BME280;58429;49.826;10.880;2022-12-07T03:43:49;98522;;;2.62;86.1
4326;BME280;58429;49.826;10.880;2022-12-07T03:44:49;98523;;;2.6;86.12
4326;BME280;58429;49.826;10.880;2022-12-07T03:45:51;98515;;;2.61;86.15
4326;BME280;58429;49.826;10.880;2022-12-07T03:46:50;98509;;;2.6;86.12
4326;BME280;58429;49.826;10.880;2022-12-07T03:47:50;98510;;;2.57;86.17
4326;BME280;58429;49.826;10.880;2022-12-07T03:48:51;98512;;;2.56;86.14
4326;BME280;58429;49.826;10.880;2022-12-07T03:49:50;98509;;;2.57;86.16
4326;BME280;58429;49.826;10.880;2022-12-07T03:50:50;98513;;;2.54;86.16
4326;BME280;58429;49.826;10.880;2022-12-07T03:51:51;98512;;;2.54;86.17
4326;BME280;58429;49.826;10.880;2022-12-07T03:52:51;98515;;;2.52;86.14
4326;BME280;58429;49.826;10.880;2022-12-07T03:53:50;98507;;;2.51;86.16
4326;BME280;58429;49.826;10.880;2022-12-07T03:54:51;98514;;;2.49;86.12
4326;BME280;58429;49.826;10.880;2022-12-07T03:55:49;98516;;;2.45;86.12
4326;BME280;58429;49.826;10.880;2022-12-07T03:56:49;98513;;;2.48;86.1
4326;BME280;58429;49.826;10.880;2022-12-07T03:57:50;98510;;;2.45;86.08
4326;BME280;58429;49.826;10.880;2022-12-07T03:58:49;98508;;;2.45;86.09
4326;BME280;58429;49.826;10.880;2022-12-07T03:59:49;98505;;;2.45;86.07
4326;BME280;58429;49.826;10.880;2022-12-07T04:00:49;98507;;;2.42;86.13
4326;BME280;58429;49.826;10.880;2022-12-07T04:01:51;98506;;;2.44;86.14
4326;BME280;58429;49.826;10.880;2022-12-07T04:02:51;98512;;;2.43;86.12
4326;BME280;58429;49.826;10.880;2022-12-07T04:03:49;98518;;;2.44;86.17
4326;BME280;58429;49.826;10.880;2022-12-07T04:04:49;98514;;;2.42;86.2
4326;BME280;58429;49.826;10.880;2022-12-07T04:05:49;98519;;;2.48;86.16
4326;BME280;58429;49.826;10.880;2022-12-07T04:06:49;98511;;;2.46;86.06
4326;BME280;58429;49.826;10.880;2022-12-07T04:07:49;98507;;;2.47;86.14
4326;BME280;58429;49.826;10.880;2022-12-07T04:08:49;98505;;;2.41;86.14
4326;BME280;58429;49.826;10.880;2022-12-07T04:09:49;98512;;;2.42;86.16
4326;BME280;58429;49.826;10.880;2022-12-07T04:10:49;98508;;;2.46;86.18
4326;BME280;58429;49.826;10.880;2022-12-07T04:11:49;98510;;;2.44;86.15
4326;BME280;58429;49.826;10.880;2022-12-07T04:12:49;98513;;;2.45;86.14
4326;BME280;58429;49.826;10.880;2022-12-07T04:13:49;98510;;;2.46;86.15
4326;BME280;58429;49.826;10.880;2022-12-07T04:14:49;98500;;;2.45;86.12
4326;BME280;58429;49.826;10.880;2022-12-07T04:15:49;98504;;;2.48;86.11
4326;BME280;58429;49.826;10.880;2022-12-07T04:16:50;98510;;;2.46;86.13
4326;BME280;58429;49.826;10.880;2022-12-07T04:17:49;98512;;;2.45;86.18
4326;BME280;58429;49.826;10.880;2022-12-07T04:18:49;98505;;;2.42;86.07
4326;BME280;58429;49.826;10.880;2022-12-07T04:19:49;98502;;;2.44;86.08
4326;BME280;58429;49.826;10.880;2022-12-07T04:20:49;98499;;;2.46;86.15
4326;BME280;58429;49.826;10.880;2022-12-07T04:21:49;98492;;;2.41;86.12
4326;BME280;58429;49.826;10.880;2022-12-07T04:22:49;98490;;;2.44;86.11
4326;BME280;58429;49.826;10.880;2022-12-07T04:23:49;98491;;;2.42;86.11
4326;BME280;58429;49.826;10.880;2022-12-07T04:24:49;98493;;;2.43;86.11
4326;BME280;58429;49.826;10.880;2022-12-07T04:25:49;98504;;;2.45;86.14
4326;BME280;58429;49.826;10.880;2022-12-07T04:26:49;98500;;;2.45;86.18
4326;BME280;58429;49.826;10.880;2022-12-07T04:27:49;98504;;;2.47;86.17
4326;BME280;58429;49.826;10.880;2022-12-07T04:28:49;98503;;;2.45;86.14
4326;BME280;58429;49.826;10.880;2022-12-07T04:29:49;98506;;;2.43;86.11
4326;BME280;58429;49.826;10.880;2022-12-07T04:30:49;98509;;;2.44;86
4326;BME280;58429;49.826;10.880;2022-12-07T04:31:49;98509;;;2.48;86.05
4326;BME280;58429;49.826;10.880;2022-12-07T04:32:49;98500;;;2.52;86.09
4326;BME280;58429;49.826;10.880;2022-12-07T04:33:49;98504;;;2.51;86.1
4326;BME280;58429;49.826;10.880;2022-12-07T04:34:49;98511;;;2.52;86.1
4326;BME280;58429;49.826;10.880;2022-12-07T04:35:49;98514;;;2.53;86.05
4326;BME280;58429;49.826;10.880;2022-12-07T04:36:49;98512;;;2.56;86.04
4326;BME280;58429;49.826;10.880;2022-12-07T04:37:49;98510;;;2.56;86.04
4326;BME280;58429;49.826;10.880;2022-12-07T04:38:49;98511;;;2.58;86.04
4326;BME280;58429;49.826;10.880;2022-12-07T04:39:49;98515;;;2.57;86.02
4326;BME280;58429;49.826;10.880;2022-12-07T04:40:49;98513;;;2.57;86.07
4326;BME280;58429;49.826;10.880;2022-12-07T04:41:49;98505;;;2.64;86.16
4326;BME280;58429;49.826;10.880;2022-12-07T04:42:49;98507;;;2.61;86.19
4326;BME280;58429;49.826;10.880;2022-12-07T04:43:49;98508;;;2.6;86.25
4326;BME280;58429;49.826;10.880;2022-12-07T04:44:49;98507;;;2.61;86.27
4326;BME280;58429;49.826;10.880;2022-12-07T04:45:49;98505;;;2.64;86.29
4326;BME280;58429;49.826;10.880;2022-12-07T04:46:49;98512;;;2.62;86.33
4326;BME280;58429;49.826;10.880;2022-12-07T04:47:49;98509;;;2.59;86.32
4326;BME280;58429;49.826;10.880;2022-12-07T04:48:49;98499;;;2.61;86.34
4326;BME280;58429;49.826;10.880;2022-12-07T04:49:49;98507;;;2.6;86.34
4326;BME280;58429;49.826;10.880;2022-12-07T04:50:49;98509;;;2.62;86.34
4326;BME280;58429;49.826;10.880;2022-12-07T04:51:50;98501;;;2.6;86.32
4326;BME280;58429;49.826;10.880;2022-12-07T04:52:49;98508;;;2.57;86.3
4326;BME280;58429;49.826;10.880;2022-12-07T04:53:49;98505;;;2.56;86.32
4326;BME280;58429;49.826;10.880;2022-12-07T04:54:49;98513;;;2.55;86.35
4326;BME280;58429;49.826;10.880;2022-12-07T04:55:49;98507;;;2.55;86.39
4326;BME280;58429;49.826;10.880;2022-12-07T04:56:49;98503;;;2.53;86.37
4326;BME280;58429;49.826;10.880;2022-12-07T04:57:49;98503;;;2.54;86.29
4326;BME280;58429;49.826;10.880;2022-12-07T04:58:50;98501;;;2.5;86.34
4326;BME280;58429;49.826;10.880;2022-12-07T04:59:49;98503;;;2.55;86.37
4326;BME280;58429;49.826;10.880;2022-12-07T05:00:49;98504;;;2.54;86.36
4326;BME280;58429;49.826;10.880;2022-12-07T05:01:49;98494;;;2.54;86.35
4326;BME280;58429;49.826;10.880;2022-12-07T05:02:49;98496;;;2.53;86.37
4326;BME280;58429;49.826;10.880;2022-12-07T05:03:49;98495;;;2.49;86.3
4326;BME280;58429;49.826;10.880;2022-12-07T05:04:49;98490;;;2.54;86.32
4326;BME280;58429;49.826;10.880;2022-12-07T05:05:49;98491;;;2.51;86.33
4326;BME280;58429;49.826;10.880;2022-12-07T05:06:49;98489;;;2.5;86.35
4326;BME280;58429;49.826;10.880;2022-12-07T05:07:49;98491;;;2.52;86.39
4326;BME280;58429;49.826;10.880;2022-12-07T05:08:49;98493;;;2.5;86.33
4326;BME280;58429;49.826;10.880;2022-12-07T05:09:49;98491;;;2.53;86.38
4326;BME280;58429;49.826;10.880;2022-12-07T05:10:49;98486;;;2.53;86.39
4326;BME280;58429;49.826;10.880;2022-12-07T05:11:49;98488;;;2.5;86.36
4326;BME280;58429;49.826;10.880;2022-12-07T05:12:49;98488;;;2.53;86.3
4326;BME280;58429;49.826;10.880;2022-12-07T05:13:49;98491;;;2.5;86.32
4326;BME280;58429;49.826;10.880;2022-12-07T05:14:49;98494;;;2.52;86.35
4326;BME280;58429;49.826;10.880;2022-12-07T05:15:49;98491;;;2.48;86.32
4326;BME280;58429;49.826;10.880;2022-12-07T05:16:50;98497;;;2.52;86.33
4326;BME280;58429;49.826;10.880;2022-12-07T05:17:49;98500;;;2.53;86.33
4326;BME280;58429;49.826;10.880;2022-12-07T05:18:49;98501;;;2.48;86.29
4326;BME280;58429;49.826;10.880;2022-12-07T05:19:49;98498;;;2.53;86.31
4326;BME280;58429;49.826;10.880;2022-12-07T05:20:49;98497;;;2.54;86.25
4326;BME280;58429;49.826;10.880;2022-12-07T05:21:49;98501;;;2.54;86.14
4326;BME280;58429;49.826;10.880;2022-12-07T05:22:49;98501;;;2.52;86.1
4326;BME280;58429;49.826;10.880;2022-12-07T05:23:49;98506;;;2.55;86.03
4326;BME280;58429;49.826;10.880;2022-12-07T05:24:49;98500;;;2.54;86.03
4326;BME280;58429;49.826;10.880;2022-12-07T05:25:49;98506;;;2.56;85.89
4326;BME280;58429;49.826;10.880;2022-12-07T05:26:49;98502;;;2.57;85.83
4326;BME280;58429;49.826;10.880;2022-12-07T05:27:49;98505;;;2.57;85.76
4326;BME280;58429;49.826;10.880;2022-12-07T05:28:50;98502;;;2.58;85.68
4326;BME280;58429;49.826;10.880;2022-12-07T05:29:49;98508;;;2.59;85.72
4326;BME280;58429;49.826;10.880;2022-12-07T05:30:49;98505;;;2.61;85.73
4326;BME280;58429;49.826;10.880;2022-12-07T05:31:49;98501;;;2.62;85.76
4326;BME280;58429;49.826;10.880;2022-12-07T05:32:49;98502;;;2.6;85.69
4326;BME280;58429;49.826;10.880;2022-12-07T05:33:49;98498;;;2.63;85.52
4326;BME280;58429;49.826;10.880;2022-12-07T05:34:49;98494;;;2.61;85.5
4326;BME280;58429;49.826;10.880;2022-12-07T05:35:49;98502;;;2.65;85.29
4326;BME280;58429;49.826;10.880;2022-12-07T05:36:49;98503;;;2.62;85.35